<?xml version="1.0" encoding="UTF-8" standalone="no" ?>
<gpx xmlns="http://www.topografix.com/GPX/1/1" xmlns:xsi="http://www.w3.org/2001/XMLSchema-instance" xsi:schemaLocation="http://www.topografix.com/GPX/1/1 http://www.topografix.com/GPX/1/1/gpx.xsd" version="1.1" creator="VisuGPX - https://www.visugpx.com">
  <metadata>
    <name>Jour 6</name>
  </metadata>
  <trk>
    <name><![CDATA[J6]]></name>
    <extensions>
      <line xmlns="http://www.topografix.com/GPX/gpx_style/0/2">
        <color>0000FF</color>
        <width>4</width>
      </line>
    </extensions>
    <trkseg>
      <trkpt lat="42.28325" lon="-1.27263">
        <ele>442.68</ele>
        <time>2021-08-04T08:40:30Z</time>
      </trkpt>
      <trkpt lat="42.28325" lon="-1.27263">
        <ele>442.9</ele>
        <time>2021-08-04T08:40:31Z</time>
      </trkpt>
      <trkpt lat="42.28323" lon="-1.27269">
        <ele>442.95</ele>
        <time>2021-08-04T08:40:34Z</time>
      </trkpt>
      <trkpt lat="42.28318" lon="-1.27347">
        <ele>443.82</ele>
        <time>2021-08-04T08:40:41Z</time>
      </trkpt>
      <trkpt lat="42.28313" lon="-1.27483">
        <ele>444.29</ele>
        <time>2021-08-04T08:40:50Z</time>
      </trkpt>
      <trkpt lat="42.28282" lon="-1.27602">
        <ele>443.25</ele>
        <time>2021-08-04T08:40:59Z</time>
      </trkpt>
      <trkpt lat="42.28247" lon="-1.27743">
        <ele>442.44</ele>
        <time>2021-08-04T08:41:09Z</time>
      </trkpt>
      <trkpt lat="42.28245" lon="-1.27834">
        <ele>441.81</ele>
        <time>2021-08-04T08:41:15Z</time>
      </trkpt>
      <trkpt lat="42.28279" lon="-1.28005">
        <ele>441.83</ele>
        <time>2021-08-04T08:41:24Z</time>
      </trkpt>
      <trkpt lat="42.28335" lon="-1.28275">
        <ele>442.33</ele>
        <time>2021-08-04T08:41:36Z</time>
      </trkpt>
      <trkpt lat="42.28404" lon="-1.2857">
        <ele>441.96</ele>
        <time>2021-08-04T08:41:49Z</time>
      </trkpt>
      <trkpt lat="42.28478" lon="-1.28755">
        <ele>445.07</ele>
        <time>2021-08-04T08:41:57Z</time>
      </trkpt>
      <trkpt lat="42.28529" lon="-1.28921">
        <ele>448.43</ele>
        <time>2021-08-04T08:42:04Z</time>
      </trkpt>
      <trkpt lat="42.28545" lon="-1.29128">
        <ele>448.66</ele>
        <time>2021-08-04T08:42:12Z</time>
      </trkpt>
      <trkpt lat="42.28521" lon="-1.29298">
        <ele>445.25</ele>
        <time>2021-08-04T08:42:18Z</time>
      </trkpt>
      <trkpt lat="42.28493" lon="-1.29409">
        <ele>441.68</ele>
        <time>2021-08-04T08:42:22Z</time>
      </trkpt>
      <trkpt lat="42.28489" lon="-1.29438">
        <ele>440.64</ele>
        <time>2021-08-04T08:42:23Z</time>
      </trkpt>
      <trkpt lat="42.28488" lon="-1.29562">
        <ele>436.67</ele>
        <time>2021-08-04T08:42:27Z</time>
      </trkpt>
      <trkpt lat="42.28506" lon="-1.29722">
        <ele>432.41</ele>
        <time>2021-08-04T08:42:32Z</time>
      </trkpt>
      <trkpt lat="42.28531" lon="-1.29842">
        <ele>429.18</ele>
        <time>2021-08-04T08:42:36Z</time>
      </trkpt>
      <trkpt lat="42.28627" lon="-1.29997">
        <ele>425.08</ele>
        <time>2021-08-04T08:42:43Z</time>
      </trkpt>
      <trkpt lat="42.28685" lon="-1.30155">
        <ele>422.05</ele>
        <time>2021-08-04T08:42:49Z</time>
      </trkpt>
      <trkpt lat="42.28769" lon="-1.30524">
        <ele>421.2</ele>
        <time>2021-08-04T08:43:01Z</time>
      </trkpt>
      <trkpt lat="42.28831" lon="-1.30825">
        <ele>421.26</ele>
        <time>2021-08-04T08:43:11Z</time>
      </trkpt>
      <trkpt lat="42.2885" lon="-1.31115">
        <ele>419.61</ele>
        <time>2021-08-04T08:43:20Z</time>
      </trkpt>
      <trkpt lat="42.28869" lon="-1.31357">
        <ele>416.32</ele>
        <time>2021-08-04T08:43:27Z</time>
      </trkpt>
      <trkpt lat="42.28902" lon="-1.31631">
        <ele>413.28</ele>
        <time>2021-08-04T08:43:35Z</time>
      </trkpt>
      <trkpt lat="42.28942" lon="-1.31981">
        <ele>410.82</ele>
        <time>2021-08-04T08:43:46Z</time>
      </trkpt>
      <trkpt lat="42.28987" lon="-1.32306">
        <ele>411.69</ele>
        <time>2021-08-04T08:43:56Z</time>
      </trkpt>
      <trkpt lat="42.29039" lon="-1.32496">
        <ele>411.81</ele>
        <time>2021-08-04T08:44:03Z</time>
      </trkpt>
      <trkpt lat="42.2912" lon="-1.32671">
        <ele>413.06</ele>
        <time>2021-08-04T08:44:10Z</time>
      </trkpt>
      <trkpt lat="42.29257" lon="-1.32867">
        <ele>416.14</ele>
        <time>2021-08-04T08:44:19Z</time>
      </trkpt>
      <trkpt lat="42.29363" lon="-1.3302">
        <ele>419.15</ele>
        <time>2021-08-04T08:44:26Z</time>
      </trkpt>
      <trkpt lat="42.29532" lon="-1.33284">
        <ele>421.84</ele>
        <time>2021-08-04T08:44:38Z</time>
      </trkpt>
      <trkpt lat="42.29636" lon="-1.33545">
        <ele>418.9</ele>
        <time>2021-08-04T08:44:48Z</time>
      </trkpt>
      <trkpt lat="42.29664" lon="-1.33655">
        <ele>415.56</ele>
        <time>2021-08-04T08:44:52Z</time>
      </trkpt>
      <trkpt lat="42.29685" lon="-1.33774">
        <ele>411.75</ele>
        <time>2021-08-04T08:44:56Z</time>
      </trkpt>
      <trkpt lat="42.29697" lon="-1.33896">
        <ele>407.74</ele>
        <time>2021-08-04T08:45:00Z</time>
      </trkpt>
      <trkpt lat="42.29702" lon="-1.33987">
        <ele>404.66</ele>
        <time>2021-08-04T08:45:03Z</time>
      </trkpt>
      <trkpt lat="42.29713" lon="-1.34079">
        <ele>401.54</ele>
        <time>2021-08-04T08:45:06Z</time>
      </trkpt>
      <trkpt lat="42.29745" lon="-1.342">
        <ele>397.84</ele>
        <time>2021-08-04T08:45:10Z</time>
      </trkpt>
      <trkpt lat="42.2981" lon="-1.34372">
        <ele>394.78</ele>
        <time>2021-08-04T08:45:16Z</time>
      </trkpt>
      <trkpt lat="42.29867" lon="-1.34513">
        <ele>393.72</ele>
        <time>2021-08-04T08:45:21Z</time>
      </trkpt>
      <trkpt lat="42.29954" lon="-1.34628">
        <ele>393.43</ele>
        <time>2021-08-04T08:45:26Z</time>
      </trkpt>
      <trkpt lat="42.30225" lon="-1.349">
        <ele>394.72</ele>
        <time>2021-08-04T08:45:40Z</time>
      </trkpt>
      <trkpt lat="42.30411" lon="-1.35211">
        <ele>395.3</ele>
        <time>2021-08-04T08:45:52Z</time>
      </trkpt>
      <trkpt lat="42.30566" lon="-1.35499">
        <ele>394.94</ele>
        <time>2021-08-04T08:46:03Z</time>
      </trkpt>
      <trkpt lat="42.30672" lon="-1.35632">
        <ele>396.66</ele>
        <time>2021-08-04T08:46:10Z</time>
      </trkpt>
      <trkpt lat="42.30832" lon="-1.35738">
        <ele>395.62</ele>
        <time>2021-08-04T08:46:19Z</time>
      </trkpt>
      <trkpt lat="42.30975" lon="-1.35868">
        <ele>393.02</ele>
        <time>2021-08-04T08:46:27Z</time>
      </trkpt>
      <trkpt lat="42.31213" lon="-1.36118">
        <ele>390.57</ele>
        <time>2021-08-04T08:46:41Z</time>
      </trkpt>
      <trkpt lat="42.31387" lon="-1.36289">
        <ele>389.61</ele>
        <time>2021-08-04T08:46:51Z</time>
      </trkpt>
      <trkpt lat="42.3147" lon="-1.36461">
        <ele>388.91</ele>
        <time>2021-08-04T08:46:58Z</time>
      </trkpt>
      <trkpt lat="42.31538" lon="-1.36649">
        <ele>385.63</ele>
        <time>2021-08-04T08:47:05Z</time>
      </trkpt>
      <trkpt lat="42.31598" lon="-1.36815">
        <ele>382.53</ele>
        <time>2021-08-04T08:47:11Z</time>
      </trkpt>
      <trkpt lat="42.31782" lon="-1.37316">
        <ele>380.67</ele>
        <time>2021-08-04T08:47:29Z</time>
      </trkpt>
      <trkpt lat="42.31885" lon="-1.37507">
        <ele>380.35</ele>
        <time>2021-08-04T08:47:37Z</time>
      </trkpt>
      <trkpt lat="42.32057" lon="-1.37803">
        <ele>382.11</ele>
        <time>2021-08-04T08:47:49Z</time>
      </trkpt>
      <trkpt lat="42.32208" lon="-1.38033">
        <ele>383.26</ele>
        <time>2021-08-04T08:47:59Z</time>
      </trkpt>
      <trkpt lat="42.32443" lon="-1.38352">
        <ele>381.88</ele>
        <time>2021-08-04T08:48:13Z</time>
      </trkpt>
      <trkpt lat="42.32659" lon="-1.38648">
        <ele>379.73</ele>
        <time>2021-08-04T08:48:26Z</time>
      </trkpt>
      <trkpt lat="42.32915" lon="-1.39">
        <ele>378.03</ele>
        <time>2021-08-04T08:48:41Z</time>
      </trkpt>
      <trkpt lat="42.33127" lon="-1.39291">
        <ele>376.82</ele>
        <time>2021-08-04T08:48:54Z</time>
      </trkpt>
      <trkpt lat="42.33333" lon="-1.39572">
        <ele>378.21</ele>
        <time>2021-08-04T08:49:07Z</time>
      </trkpt>
      <trkpt lat="42.33612" lon="-1.39954">
        <ele>375.79</ele>
        <time>2021-08-04T08:49:24Z</time>
      </trkpt>
      <trkpt lat="42.33818" lon="-1.40238">
        <ele>377.78</ele>
        <time>2021-08-04T08:49:37Z</time>
      </trkpt>
      <trkpt lat="42.3393" lon="-1.4042">
        <ele>380.02</ele>
        <time>2021-08-04T08:49:46Z</time>
      </trkpt>
      <trkpt lat="42.34056" lon="-1.40702">
        <ele>378.51</ele>
        <time>2021-08-04T08:49:58Z</time>
      </trkpt>
      <trkpt lat="42.34166" lon="-1.40951">
        <ele>381.7</ele>
        <time>2021-08-04T08:50:09Z</time>
      </trkpt>
    </trkseg>
  </trk>
</gpx>